sensor_id;sensor_type;location;lat;lon;timestamp;pressure;altitude;pressure_sealevel;temperature;humidity
40920;BME280;26652;50.280;19.026;2023-04-24T00:00:45;97450.50;;;12.73;92.58
40920;BME280;26652;50.280;19.026;2023-04-24T00:03:01;97441.50;;;12.71;92.74
40920;BME280;26652;50.280;19.026;2023-04-24T00:05:07;97440.66;;;12.59;92.96
40920;BME280;26652;50.280;19.026;2023-04-24T00:07:21;97441.78;;;12.63;92.34
40920;BME280;26652;50.280;19.026;2023-04-24T00:09:30;97438.03;;;12.65;92.00
40920;BME280;26652;50.280;19.026;2023-04-24T00:11:44;97443.16;;;12.65;92.21
40920;BME280;26652;50.280;19.026;2023-04-24T00:13:52;97437.25;;;12.65;92.75
40920;BME280;26652;50.280;19.026;2023-04-24T00:16:16;97436.69;;;12.63;93.39
40920;BME280;26652;50.280;19.026;2023-04-24T00:18:25;97435.91;;;12.62;92.31
40920;BME280;26652;50.280;19.026;2023-04-24T00:20:49;97437.91;;;12.60;92.19
40920;BME280;26652;50.280;19.026;2023-04-24T00:23:04;97440.87;;;12.57;92.14
40920;BME280;26652;50.280;19.026;2023-04-24T00:25:17;97437.75;;;12.55;92.44
40920;BME280;26652;50.280;19.026;2023-04-24T00:27:24;97433.91;;;12.64;92.36
40920;BME280;26652;50.280;19.026;2023-04-24T00:29:45;97435.28;;;12.67;92.58
40920;BME280;26652;50.280;19.026;2023-04-24T00:31:56;97410.34;;;12.51;92.34
40920;BME280;26652;50.280;19.026;2023-04-24T00:34:05;97417.34;;;12.55;93.03
40920;BME280;26652;50.280;19.026;2023-04-24T00:36:15;97415.53;;;12.44;92.89
40920;BME280;26652;50.280;19.026;2023-04-24T00:38:37;97411.00;;;12.46;93.27
40920;BME280;26652;50.280;19.026;2023-04-24T00:40:47;97412.31;;;12.49;91.52
40920;BME280;26652;50.280;19.026;2023-04-24T00:43:00;97410.31;;;12.39;91.79
40920;BME280;26652;50.280;19.026;2023-04-24T00:45:12;97405.62;;;12.36;92.01
40920;BME280;26652;50.280;19.026;2023-04-24T00:47:32;97401.87;;;12.38;89.62
40920;BME280;26652;50.280;19.026;2023-04-24T00:49:40;97401.69;;;12.52;87.21
40920;BME280;26652;50.280;19.026;2023-04-24T00:52:03;97394.94;;;12.57;87.71
40920;BME280;26652;50.280;19.026;2023-04-24T00:54:12;97400.69;;;12.53;87.82
40920;BME280;26652;50.280;19.026;2023-04-24T00:56:23;97398.91;;;12.53;87.47
40920;BME280;26652;50.280;19.026;2023-04-24T00:58:32;97402.78;;;12.44;87.94
40920;BME280;26652;50.280;19.026;2023-04-24T01:00:46;97398.88;;;12.41;88.82
40920;BME280;26652;50.280;19.026;2023-04-24T01:02:58;97396.69;;;12.45;88.25
40920;BME280;26652;50.280;19.026;2023-04-24T01:05:09;97395.22;;;12.49;87.82
40920;BME280;26652;50.280;19.026;2023-04-24T01:07:26;97399.56;;;12.49;87.71
40920;BME280;26652;50.280;19.026;2023-04-24T01:09:38;97400.25;;;12.56;86.46
40920;BME280;26652;50.280;19.026;2023-04-24T01:11:47;97392.69;;;12.49;86.77
40920;BME280;26652;50.280;19.026;2023-04-24T01:14:01;97392.16;;;12.29;88.13
40920;BME280;26652;50.280;19.026;2023-04-24T01:16:19;97387.75;;;12.18;89.76
40920;BME280;26652;50.280;19.026;2023-04-24T01:18:31;97385.94;;;12.25;87.08
40920;BME280;26652;50.280;19.026;2023-04-24T01:20:39;97391.94;;;12.30;86.42
40920;BME280;26652;50.280;19.026;2023-04-24T01:22:55;97388.97;;;12.33;85.59
40920;BME280;26652;50.280;19.026;2023-04-24T01:25:04;97388.19;;;12.33;85.53
40920;BME280;26652;50.280;19.026;2023-04-24T01:27:19;97384.28;;;12.30;86.49
40920;BME280;26652;50.280;19.026;2023-04-24T01:29:24;97379.75;;;12.32;85.55
40920;BME280;26652;50.280;19.026;2023-04-24T01:31:44;97378.06;;;12.26;84.53
40920;BME280;26652;50.280;19.026;2023-04-24T01:33:49;97370.41;;;12.26;82.52
40920;BME280;26652;50.280;19.026;2023-04-24T01:36:01;97376.06;;;12.28;84.01
40920;BME280;26652;50.280;19.026;2023-04-24T01:38:13;97369.53;;;12.32;82.60
40920;BME280;26652;50.280;19.026;2023-04-24T01:40:32;97354.53;;;12.24;81.02
40920;BME280;26652;50.280;19.026;2023-04-24T01:42:42;97371.59;;;12.24;81.33
40920;BME280;26652;50.280;19.026;2023-04-24T01:44:53;97364.03;;;12.17;81.30
40920;BME280;26652;50.280;19.026;2023-04-24T01:47:03;97358.38;;;12.15;80.02
40920;BME280;26652;50.280;19.026;2023-04-24T01:49:16;97368.28;;;12.23;80.09
40920;BME280;26652;50.280;19.026;2023-04-24T01:51:24;97354.59;;;12.18;81.50
40920;BME280;26652;50.280;19.026;2023-04-24T01:53:39;97359.91;;;12.16;80.19
40920;BME280;26652;50.280;19.026;2023-04-24T01:55:47;97358.66;;;12.07;76.42
40920;BME280;26652;50.280;19.026;2023-04-24T01:58:00;97363.19;;;12.05;78.22
40920;BME280;26652;50.280;19.026;2023-04-24T02:00:08;97361.34;;;12.12;78.72
40920;BME280;26652;50.280;19.026;2023-04-24T02:02:25;97362.47;;;12.16;79.93
40920;BME280;26652;50.280;19.026;2023-04-24T02:04:36;97354.81;;;12.16;80.28
40920;BME280;26652;50.280;19.026;2023-04-24T02:06:56;97354.41;;;12.19;79.14
40920;BME280;26652;50.280;19.026;2023-04-24T02:09:08;97351.06;;;12.19;79.81
40920;BME280;26652;50.280;19.026;2023-04-24T02:11:30;97353.12;;;12.10;79.67
40920;BME280;26652;50.280;19.026;2023-04-24T02:13:41;97350.56;;;12.10;78.35
40920;BME280;26652;50.280;19.026;2023-04-24T02:15:58;97352.97;;;12.05;78.20
40920;BME280;26652;50.280;19.026;2023-04-24T02:18:06;97352.00;;;12.06;78.02
40920;BME280;26652;50.280;19.026;2023-04-24T02:20:30;97341.22;;;12.04;77.57
40920;BME280;26652;50.280;19.026;2023-04-24T02:22:40;97344.34;;;12.06;77.37
40920;BME280;26652;50.280;19.026;2023-04-24T02:25:04;97334.44;;;11.98;77.53
40920;BME280;26652;50.280;19.026;2023-04-24T02:27:12;97337.19;;;11.96;76.72
40920;BME280;26652;50.280;19.026;2023-04-24T02:29:30;97335.41;;;11.97;76.20
40920;BME280;26652;50.280;19.026;2023-04-24T02:31:55;97327.75;;;11.97;74.98
40920;BME280;26652;50.280;19.026;2023-04-24T02:34:07;97330.75;;;11.94;75.85
40920;BME280;26652;50.280;19.026;2023-04-24T02:36:13;97322.81;;;11.84;75.16
40920;BME280;26652;50.280;19.026;2023-04-24T02:38:31;97327.63;;;11.92;74.79
40920;BME280;26652;50.280;19.026;2023-04-24T02:40:49;97330.31;;;11.78;77.47
40920;BME280;26652;50.280;19.026;2023-04-24T02:43:20;97327.34;;;11.82;74.51
40920;BME280;26652;50.280;19.026;2023-04-24T02:45:45;97328.91;;;11.83;74.24
40920;BME280;26652;50.280;19.026;2023-04-24T02:47:58;97329.47;;;11.85;74.17
40920;BME280;26652;50.280;19.026;2023-04-24T02:50:13;97331.38;;;11.89;72.98
40920;BME280;26652;50.280;19.026;2023-04-24T02:52:25;97307.16;;;11.80;71.96
40920;BME280;26652;50.280;19.026;2023-04-24T02:54:37;97332.38;;;11.88;75.20
40920;BME280;26652;50.280;19.026;2023-04-24T02:56:48;97328.06;;;11.89;71.92
40920;BME280;26652;50.280;19.026;2023-04-24T02:58:56;97324.50;;;11.90;72.65
40920;BME280;26652;50.280;19.026;2023-04-24T03:01:24;97324.28;;;11.91;72.27
40920;BME280;26652;50.280;19.026;2023-04-24T03:03:33;97314.91;;;11.67;79.18
40920;BME280;26652;50.280;19.026;2023-04-24T03:05:47;97314.75;;;11.62;78.10
40920;BME280;26652;50.280;19.026;2023-04-24T03:08:12;97317.25;;;11.68;77.86
40920;BME280;26652;50.280;19.026;2023-04-24T03:10:35;97317.03;;;11.52;76.39
40920;BME280;26652;50.280;19.026;2023-04-24T03:12:44;97325.81;;;11.56;75.93
40920;BME280;26652;50.280;19.026;2023-04-24T03:14:59;97319.66;;;11.63;75.40
40920;BME280;26652;50.280;19.026;2023-04-24T03:17:07;97313.56;;;11.64;75.11
40920;BME280;26652;50.280;19.026;2023-04-24T03:19:21;97313.34;;;11.66;73.94
40920;BME280;26652;50.280;19.026;2023-04-24T03:21:31;97312.22;;;11.62;74.07
40920;BME280;26652;50.280;19.026;2023-04-24T03:23:57;97310.31;;;11.57;75.79
40920;BME280;26652;50.280;19.026;2023-04-24T03:26:05;97302.50;;;11.52;75.42
40920;BME280;26652;50.280;19.026;2023-04-24T03:28:23;97315.53;;;11.62;74.64
40920;BME280;26652;50.280;19.026;2023-04-24T03:30:31;97318.44;;;11.66;74.60
40920;BME280;26652;50.280;19.026;2023-04-24T03:32:49;97321.41;;;11.63;75.00
40920;BME280;26652;50.280;19.026;2023-04-24T03:34:58;97313.84;;;11.56;75.36
40920;BME280;26652;50.280;19.026;2023-04-24T03:37:12;97320.63;;;11.62;75.29
40920;BME280;26652;50.280;19.026;2023-04-24T03:39:20;97322.00;;;11.65;75.91
40920;BME280;26652;50.280;19.026;2023-04-24T03:41:38;97319.16;;;11.73;76.18
40920;BME280;26652;50.280;19.026;2023-04-24T03:43:47;97318.94;;;11.74;74.39
40920;BME280;26652;50.280;19.026;2023-04-24T03:46:03;97302.37;;;11.65;76.82
40920;BME280;26652;50.280;19.026;2023-04-24T03:48:09;97318.87;;;11.63;77.49
40920;BME280;26652;50.280;19.026;2023-04-24T03:50:22;97317.66;;;11.65;76.69
40920;BME280;26652;50.280;19.026;2023-04-24T03:52:36;97316.88;;;11.65;77.82
40920;BME280;26652;50.280;19.026;2023-04-24T03:54:50;97324.47;;;11.71;77.97
40920;BME280;26652;50.280;19.026;2023-04-24T03:57:14;97320.72;;;11.74;79.00
40920;BME280;26652;50.280;19.026;2023-04-24T03:59:28;97326.78;;;11.79;77.88
40920;BME280;26652;50.280;19.026;2023-04-24T04:01:39;97321.03;;;11.84;77.28
40920;BME280;26652;50.280;19.026;2023-04-24T04:03:56;97328.81;;;11.89;77.08
40920;BME280;26652;50.280;19.026;2023-04-24T04:06:11;97325.72;;;11.87;77.09
40920;BME280;26652;50.280;19.026;2023-04-24T04:08:25;97326.50;;;11.88;77.52
40920;BME280;26652;50.280;19.026;2023-04-24T04:10:44;97323.72;;;11.89;77.68
40920;BME280;26652;50.280;19.026;2023-04-24T04:12:55;97325.78;;;11.99;77.73
40920;BME280;26652;50.280;19.026;2023-04-24T04:15:09;97323.16;;;11.87;78.37
40920;BME280;26652;50.280;19.026;2023-04-24T04:17:18;97318.94;;;11.74;79.59
40920;BME280;26652;50.280;19.026;2023-04-24T04:19:27;97324.88;;;11.93;78.52
40920;BME280;26652;50.280;19.026;2023-04-24T04:21:41;97324.72;;;11.88;80.16
40920;BME280;26652;50.280;19.026;2023-04-24T04:24:00;97329.19;;;12.11;80.34
40920;BME280;26652;50.280;19.026;2023-04-24T04:26:20;97320.63;;;12.35;77.80
40920;BME280;26652;50.280;19.026;2023-04-24T04:28:32;97322.47;;;12.58;74.95
40920;BME280;26652;50.280;19.026;2023-04-24T04:30:54;97322.03;;;12.61;74.24
40920;BME280;26652;50.280;19.026;2023-04-24T04:33:03;97330.28;;;12.75;74.13
40920;BME280;26652;50.280;19.026;2023-04-24T04:35:17;97323.28;;;12.70;74.93
40920;BME280;26652;50.280;19.026;2023-04-24T04:37:31;97311.47;;;12.58;74.64
40920;BME280;26652;50.280;19.026;2023-04-24T04:39:42;97316.16;;;12.61;76.27
40920;BME280;26652;50.280;19.026;2023-04-24T04:42:01;97320.59;;;12.65;74.22
40920;BME280;26652;50.280;19.026;2023-04-24T04:44:15;97320.75;;;12.82;72.94
40920;BME280;26652;50.280;19.026;2023-04-24T04:46:24;97315.69;;;12.94;71.83
40920;BME280;26652;50.280;19.026;2023-04-24T04:48:39;97323.47;;;13.10;70.64
40920;BME280;26652;50.280;19.026;2023-04-24T04:50:58;97331.75;;;13.24;71.05
40920;BME280;26652;50.280;19.026;2023-04-24T04:53:15;97321.53;;;13.24;69.63
40920;BME280;26652;50.280;19.026;2023-04-24T04:55:34;97330.41;;;13.45;68.91
40920;BME280;26652;50.280;19.026;2023-04-24T04:57:48;97320.59;;;13.65;67.58
40920;BME280;26652;50.280;19.026;2023-04-24T04:59:56;97328.13;;;13.84;66.76
40920;BME280;26652;50.280;19.026;2023-04-24T05:02:26;97325.78;;;13.94;65.90
40920;BME280;26652;50.280;19.026;2023-04-24T05:04:44;97332.94;;;14.20;65.73
40920;BME280;26652;50.280;19.026;2023-04-24T05:06:58;97319.88;;;14.33;62.74
40920;BME280;26652;50.280;19.026;2023-04-24T05:09:07;97326.78;;;14.45;62.80
40920;BME280;26652;50.280;19.026;2023-04-24T05:11:27;97326.56;;;14.63;62.30
40920;BME280;26652;50.280;19.026;2023-04-24T05:13:46;97326.66;;;14.85;62.63
40920;BME280;26652;50.280;19.026;2023-04-24T05:15:57;97324.41;;;14.88;60.16
40920;BME280;26652;50.280;19.026;2023-04-24T05:18:04;97323.66;;;15.04;58.59
40920;BME280;26652;50.280;19.026;2023-04-24T05:20:27;97334.44;;;15.23;57.14
40920;BME280;26652;50.280;19.026;2023-04-24T05:22:50;97335.69;;;15.37;55.93
40920;BME280;26652;50.280;19.026;2023-04-24T05:25:31;97321.75;;;15.50;54.56
40920;BME280;26652;50.280;19.026;2023-04-24T05:27:41;97330.91;;;15.63;57.08
40920;BME280;26652;50.280;19.026;2023-04-24T05:29:59;97329.47;;;15.72;53.83
40920;BME280;26652;50.280;19.026;2023-04-24T05:32:08;97324.78;;;15.86;55.40
40920;BME280;26652;50.280;19.026;2023-04-24T05:34:22;97332.47;;;15.86;53.50
40920;BME280;26652;50.280;19.026;2023-04-24T05:36:36;97318.41;;;15.88;53.79
40920;BME280;26652;50.280;19.026;2023-04-24T05:38:50;97334.34;;;16.12;52.83
40920;BME280;26652;50.280;19.026;2023-04-24T05:41:03;97338.63;;;16.28;54.66
40920;BME280;26652;50.280;19.026;2023-04-24T05:43:22;97329.47;;;16.38;52.21
40920;BME280;26652;50.280;19.026;2023-04-24T05:45:35;97328.28;;;16.45;52.65
40920;BME280;26652;50.280;19.026;2023-04-24T05:47:46;97333.66;;;16.44;52.96
40920;BME280;26652;50.280;19.026;2023-04-24T05:49:56;97329.09;;;16.51;53.13
40920;BME280;26652;50.280;19.026;2023-04-24T05:52:19;97329.72;;;16.63;52.81
40920;BME280;26652;50.280;19.026;2023-04-24T05:54:28;97327.75;;;16.70;53.08
40920;BME280;26652;50.280;19.026;2023-04-24T05:56:41;97319.81;;;16.77;53.37
40920;BME280;26652;50.280;19.026;2023-04-24T05:58:47;97332.28;;;16.90;53.57
40920;BME280;26652;50.280;19.026;2023-04-24T06:01:04;97329.19;;;16.88;52.84
40920;BME280;26652;50.280;19.026;2023-04-24T06:03:18;97322.12;;;17.05;54.07
40920;BME280;26652;50.280;19.026;2023-04-24T06:05:31;97327.03;;;17.12;52.32
40920;BME280;26652;50.280;19.026;2023-04-24T06:07:40;97314.50;;;17.20;52.01
40920;BME280;26652;50.280;19.026;2023-04-24T06:09:52;97317.87;;;17.26;51.98
40920;BME280;26652;50.280;19.026;2023-04-24T06:12:07;97322.56;;;17.34;51.72
40920;BME280;26652;50.280;19.026;2023-04-24T06:14:18;97323.34;;;17.35;50.94
40920;BME280;26652;50.280;19.026;2023-04-24T06:16:24;97319.78;;;17.41;50.31
40920;BME280;26652;50.280;19.026;2023-04-24T06:18:43;97318.56;;;17.53;51.78
40920;BME280;26652;50.280;19.026;2023-04-24T06:20:51;97309.03;;;17.49;52.70
40920;BME280;26652;50.280;19.026;2023-04-24T06:23:05;97318.34;;;17.60;51.22
40920;BME280;26652;50.280;19.026;2023-04-24T06:25:18;97306.09;;;17.77;51.78
40920;BME280;26652;50.280;19.026;2023-04-24T06:27:27;97308.19;;;17.90;49.68
40920;BME280;26652;50.280;19.026;2023-04-24T06:29:36;97315.09;;;17.80;49.29
40920;BME280;26652;50.280;19.026;2023-04-24T06:31:49;97317.06;;;17.62;46.56
40920;BME280;26652;50.280;19.026;2023-04-24T06:33:58;97309.66;;;17.71;46.57
40920;BME280;26652;50.280;19.026;2023-04-24T06:36:13;97309.66;;;17.71;46.32
40920;BME280;26652;50.280;19.026;2023-04-24T06:38:21;97309.22;;;17.89;48.58
40920;BME280;26652;50.280;19.026;2023-04-24T06:40:35;97310.72;;;17.80;43.73
40920;BME280;26652;50.280;19.026;2023-04-24T06:42:54;97314.56;;;17.78;42.36
40920;BME280;26652;50.280;19.026;2023-04-24T06:45:07;97310.22;;;17.83;42.46
40920;BME280;26652;50.280;19.026;2023-04-24T06:47:15;97306.66;;;17.94;41.43
40920;BME280;26652;50.280;19.026;2023-04-24T06:49:34;97315.47;;;18.04;42.28
40920;BME280;26652;50.280;19.026;2023-04-24T06:51:39;97303.41;;;18.19;40.79
40920;BME280;26652;50.280;19.026;2023-04-24T06:53:54;97310.44;;;19.15;40.37
40920;BME280;26652;50.280;19.026;2023-04-24T06:56:08;97315.84;;;20.63;38.88
40920;BME280;26652;50.280;19.026;2023-04-24T06:58:26;97321.75;;;22.22;36.16
40920;BME280;26652;50.280;19.026;2023-04-24T07:00:35;97323.63;;;23.05;33.88
40920;BME280;26652;50.280;19.026;2023-04-24T07:02:56;97319.84;;;23.99;33.45
40920;BME280;26652;50.280;19.026;2023-04-24T07:05:07;97327.31;;;24.86;31.31
40920;BME280;26652;50.280;19.026;2023-04-24T07:07:28;97327.66;;;25.95;30.80
40920;BME280;26652;50.280;19.026;2023-04-24T07:09:36;97327.84;;;26.33;30.83
40920;BME280;26652;50.280;19.026;2023-04-24T07:11:51;97325.06;;;26.98;29.56
40920;BME280;26652;50.280;19.026;2023-04-24T07:13:57;97328.69;;;27.61;30.90
40920;BME280;26652;50.280;19.026;2023-04-24T07:16:15;97326.56;;;27.84;27.34
40920;BME280;26652;50.280;19.026;2023-04-24T07:18:23;97329.34;;;28.29;27.16
40920;BME280;26652;50.280;19.026;2023-04-24T07:20:37;97326.25;;;27.48;26.34
40920;BME280;26652;50.280;19.026;2023-04-24T07:22:45;97324.63;;;26.70;26.81
40920;BME280;26652;50.280;19.026;2023-04-24T07:25:10;97329.50;;;26.20;28.77
40920;BME280;26652;50.280;19.026;2023-04-24T07:27:18;97329.38;;;26.86;27.14
40920;BME280;26652;50.280;19.026;2023-04-24T07:29:42;97326.16;;;26.54;29.24
40920;BME280;26652;50.280;19.026;2023-04-24T07:31:48;97321.22;;;26.79;29.46
40920;BME280;26652;50.280;19.026;2023-04-24T07:34:03;97318.66;;;26.53;28.22
40920;BME280;26652;50.280;19.026;2023-04-24T07:36:11;97313.38;;;26.10;28.18
40920;BME280;26652;50.280;19.026;2023-04-24T07:38:29;97314.94;;;25.54;28.59
40920;BME280;26652;50.280;19.026;2023-04-24T07:40:34;97314.91;;;25.14;28.76
40920;BME280;26652;50.280;19.026;2023-04-24T07:42:56;97308.09;;;25.27;31.35
40920;BME280;26652;50.280;19.026;2023-04-24T07:45:04;97302.44;;;25.02;29.07
40920;BME280;26652;50.280;19.026;2023-04-24T07:47:22;97309.16;;;25.26;30.97
40920;BME280;26652;50.280;19.026;2023-04-24T07:49:32;97304.63;;;25.09;30.45
40920;BME280;26652;50.280;19.026;2023-04-24T07:51:46;97304.41;;;24.97;31.73
40920;BME280;26652;50.280;19.026;2023-04-24T07:54:04;97308.25;;;24.99;29.43
40920;BME280;26652;50.280;19.026;2023-04-24T07:56:15;97307.84;;;25.46;30.38
40920;BME280;26652;50.280;19.026;2023-04-24T07:58:21;97304.31;;;25.41;29.72
40920;BME280;26652;50.280;19.026;2023-04-24T08:00:56;97291.09;;;25.69;31.52
40920;BME280;26652;50.280;19.026;2023-04-24T08:03:05;97289.16;;;25.92;30.37
40920;BME280;26652;50.280;19.026;2023-04-24T08:05:19;97288.47;;;25.69;30.21
40920;BME280;26652;50.280;19.026;2023-04-24T08:07:29;97291.56;;;25.00;29.12
40920;BME280;26652;50.280;19.026;2023-04-24T08:09:48;97292.59;;;24.46;30.45
40920;BME280;26652;50.280;19.026;2023-04-24T08:11:56;97284.47;;;23.75;30.02
40920;BME280;26652;50.280;19.026;2023-04-24T08:14:09;97277.84;;;24.05;29.16
40920;BME280;26652;50.280;19.026;2023-04-24T08:16:23;97275.78;;;24.30;30.26
40920;BME280;26652;50.280;19.026;2023-04-24T08:18:40;97287.37;;;24.46;29.41
40920;BME280;26652;50.280;19.026;2023-04-24T08:20:49;97274.41;;;23.96;30.77
40920;BME280;26652;50.280;19.026;2023-04-24T08:23:03;97285.00;;;24.36;29.96
40920;BME280;26652;50.280;19.026;2023-04-24T08:25:18;97279.87;;;24.44;32.39
40920;BME280;26652;50.280;19.026;2023-04-24T08:27:31;97277.81;;;24.55;34.17
40920;BME280;26652;50.280;19.026;2023-04-24T08:29:40;97275.78;;;24.30;30.55
40920;BME280;26652;50.280;19.026;2023-04-24T08:31:55;97271.16;;;23.91;30.57
40920;BME280;26652;50.280;19.026;2023-04-24T08:34:10;97263.78;;;23.70;31.03
40920;BME280;26652;50.280;19.026;2023-04-24T08:36:35;97268.88;;;23.75;35.88
40920;BME280;26652;50.280;19.026;2023-04-24T08:38:41;97278.00;;;23.32;31.07
40920;BME280;26652;50.280;19.026;2023-04-24T08:40:53;97266.16;;;23.26;30.72
40920;BME280;26652;50.280;19.026;2023-04-24T08:43:00;97269.34;;;23.77;34.51
40920;BME280;26652;50.280;19.026;2023-04-24T08:45:13;97263.31;;;24.04;33.29
40920;BME280;26652;50.280;19.026;2023-04-24T08:47:23;97267.81;;;23.90;31.49
40920;BME280;26652;50.280;19.026;2023-04-24T08:49:35;97271.47;;;24.11;31.82
40920;BME280;26652;50.280;19.026;2023-04-24T08:51:52;97265.69;;;23.78;29.93
40920;BME280;26652;50.280;19.026;2023-04-24T08:54:04;97261.06;;;23.07;31.41
40920;BME280;26652;50.280;19.026;2023-04-24T08:56:09;97242.31;;;23.37;34.92
40920;BME280;26652;50.280;19.026;2023-04-24T08:58:25;97257.53;;;23.58;32.19
40920;BME280;26652;50.280;19.026;2023-04-24T09:00:33;97260.13;;;23.58;30.57
40920;BME280;26652;50.280;19.026;2023-04-24T09:02:43;97255.13;;;23.61;32.54
40920;BME280;26652;50.280;19.026;2023-04-24T09:04:52;97251.16;;;23.50;32.36
40920;BME280;26652;50.280;19.026;2023-04-24T09:07:03;97247.72;;;23.68;31.65
40920;BME280;26652;50.280;19.026;2023-04-24T09:09:11;97255.00;;;23.53;31.07
40920;BME280;26652;50.280;19.026;2023-04-24T09:11:24;97251.75;;;23.47;31.40
40920;BME280;26652;50.280;19.026;2023-04-24T09:13:33;97251.19;;;23.64;32.72
40920;BME280;26652;50.280;19.026;2023-04-24T09:15:43;97252.03;;;23.73;31.37
40920;BME280;26652;50.280;19.026;2023-04-24T09:17:51;97247.53;;;24.01;34.25
40920;BME280;26652;50.280;19.026;2023-04-24T09:20:06;97243.16;;;24.10;33.01
40920;BME280;26652;50.280;19.026;2023-04-24T09:22:13;97243.28;;;23.69;31.72
40920;BME280;26652;50.280;19.026;2023-04-24T09:24:24;97239.91;;;23.27;31.77
40920;BME280;26652;50.280;19.026;2023-04-24T09:26:38;97241.44;;;23.14;33.23
40920;BME280;26652;50.280;19.026;2023-04-24T09:28:51;97234.59;;;22.91;33.04
40920;BME280;26652;50.280;19.026;2023-04-24T09:31:12;97243.16;;;22.92;32.62
40920;BME280;26652;50.280;19.026;2023-04-24T09:33:24;97237.31;;;23.13;35.39
40920;BME280;26652;50.280;19.026;2023-04-24T09:35:48;97233.47;;;23.11;34.97
40920;BME280;26652;50.280;19.026;2023-04-24T09:38:02;97238.94;;;23.23;34.36
40920;BME280;26652;50.280;19.026;2023-04-24T09:40:21;97237.69;;;23.21;31.58
40920;BME280;26652;50.280;19.026;2023-04-24T09:42:34;97226.94;;;23.27;35.26
40920;BME280;26652;50.280;19.026;2023-04-24T09:44:46;97227.78;;;23.09;33.26
40920;BME280;26652;50.280;19.026;2023-04-24T09:47:05;97223.72;;;22.89;33.39
40920;BME280;26652;50.280;19.026;2023-04-24T09:49:21;97225.41;;;22.66;33.34
40920;BME280;26652;50.280;19.026;2023-04-24T09:51:36;97225.28;;;22.25;33.95
40920;BME280;26652;50.280;19.026;2023-04-24T09:53:46;97231.72;;;22.28;34.68
40920;BME280;26652;50.280;19.026;2023-04-24T09:56:19;97216.91;;;22.47;36.21
40920;BME280;26652;50.280;19.026;2023-04-24T09:58:28;97217.41;;;22.49;33.85
40920;BME280;26652;50.280;19.026;2023-04-24T10:00:41;97221.16;;;22.57;36.74
40920;BME280;26652;50.280;19.026;2023-04-24T10:02:56;97213.53;;;22.46;34.86
40920;BME280;26652;50.280;19.026;2023-04-24T10:05:06;97217.69;;;22.47;36.06
40920;BME280;26652;50.280;19.026;2023-04-24T10:07:17;97225.28;;;22.25;35.68
40920;BME280;26652;50.280;19.026;2023-04-24T10:09:28;97220.38;;;22.05;36.38
40920;BME280;26652;50.280;19.026;2023-04-24T10:11:45;97224.00;;;21.85;36.01
40920;BME280;26652;50.280;19.026;2023-04-24T10:13:57;97213.03;;;21.74;35.81
40920;BME280;26652;50.280;19.026;2023-04-24T10:16:04;97215.12;;;22.10;37.52
40920;BME280;26652;50.280;19.026;2023-04-24T10:18:18;97213.69;;;22.36;35.26
40920;BME280;26652;50.280;19.026;2023-04-24T10:20:27;97208.19;;;22.24;35.24
40920;BME280;26652;50.280;19.026;2023-04-24T10:22:38;97208.56;;;22.50;36.15
40920;BME280;26652;50.280;19.026;2023-04-24T10:24:46;97207.66;;;22.41;34.28
40920;BME280;26652;50.280;19.026;2023-04-24T10:26:57;97210.56;;;22.21;33.89
40920;BME280;26652;50.280;19.026;2023-04-24T10:29:07;97201.03;;;22.16;35.23
40920;BME280;26652;50.280;19.026;2023-04-24T10:31:18;97197.34;;;22.55;34.17
40920;BME280;26652;50.280;19.026;2023-04-24T10:33:24;97208.62;;;22.91;34.19
40920;BME280;26652;50.280;19.026;2023-04-24T10:35:44;97208.25;;;22.98;33.70
40920;BME280;26652;50.280;19.026;2023-04-24T10:38:08;97200.09;;;23.04;31.22
40920;BME280;26652;50.280;19.026;2023-04-24T10:40:30;97207.31;;;23.21;32.79
40920;BME280;26652;50.280;19.026;2023-04-24T10:42:42;97201.91;;;23.45;35.88
40920;BME280;26652;50.280;19.026;2023-04-24T10:45:17;97203.34;;;23.65;31.32
40920;BME280;26652;50.280;19.026;2023-04-24T10:47:24;97197.88;;;23.53;31.73
40920;BME280;26652;50.280;19.026;2023-04-24T10:49:40;97175.06;;;23.49;32.38
40920;BME280;26652;50.280;19.026;2023-04-24T10:51:54;97194.72;;;23.56;32.79
40920;BME280;26652;50.280;19.026;2023-04-24T10:54:25;97195.75;;;23.41;32.11
40920;BME280;26652;50.280;19.026;2023-04-24T10:56:33;97187.78;;;23.10;34.25
40920;BME280;26652;50.280;19.026;2023-04-24T10:58:54;97194.50;;;22.97;33.92
40920;BME280;26652;50.280;19.026;2023-04-24T11:01:08;97194.53;;;22.51;34.33
40920;BME280;26652;50.280;19.026;2023-04-24T11:03:33;97193.81;;;22.32;34.94
40920;BME280;26652;50.280;19.026;2023-04-24T11:06:12;97194.53;;;21.62;36.52
40920;BME280;26652;50.280;19.026;2023-04-24T11:08:45;97201.16;;;21.02;37.66
40920;BME280;26652;50.280;19.026;2023-04-24T11:11:02;97186.72;;;20.72;39.13
40920;BME280;26652;50.280;19.026;2023-04-24T11:13:16;97190.53;;;20.50;39.21
40920;BME280;26652;50.280;19.026;2023-04-24T11:15:21;97188.91;;;20.60;39.31
40920;BME280;26652;50.280;19.026;2023-04-24T11:17:34;97189.19;;;20.58;39.58
40920;BME280;26652;50.280;19.026;2023-04-24T11:19:42;97210.87;;;20.23;39.51
40920;BME280;26652;50.280;19.026;2023-04-24T11:22:02;97211.56;;;19.95;40.35
40920;BME280;26652;50.280;19.026;2023-04-24T11:24:38;97208.22;;;19.94;40.93
40920;BME280;26652;50.280;19.026;2023-04-24T11:26:51;97208.47;;;19.92;41.54
40920;BME280;26652;50.280;19.026;2023-04-24T11:29:07;97209.81;;;19.85;41.31
40920;BME280;26652;50.280;19.026;2023-04-24T11:31:39;97214.88;;;19.61;42.01
40920;BME280;26652;50.280;19.026;2023-04-24T11:33:55;97210.50;;;19.46;41.81
40920;BME280;26652;50.280;19.026;2023-04-24T11:36:06;97224.47;;;19.40;42.29
40920;BME280;26652;50.280;19.026;2023-04-24T11:38:12;97208.00;;;19.26;42.69
40920;BME280;26652;50.280;19.026;2023-04-24T11:40:28;97214.72;;;19.27;43.12